createdAt,value
2023-07-21T00:00:25.588Z,27.19
2023-07-21T00:01:29.365Z,27.23
2023-07-21T00:02:32.172Z,27.07
2023-07-21T00:03:36.288Z,27.05
2023-07-21T00:04:38.762Z,27.13
2023-07-21T00:05:42.416Z,27.14
2023-07-21T00:06:45.133Z,27.25
2023-07-21T00:07:49.530Z,27.28
2023-07-21T00:08:55.272Z,27.43
2023-07-21T00:10:00.585Z,27.33
2023-07-21T00:11:04.244Z,27.21
2023-07-21T00:12:08.425Z,27.15
2023-07-21T00:13:10.993Z,27.04
2023-07-21T00:14:14.880Z,27.02
2023-07-21T00:15:19.497Z,27.01
2023-07-21T00:16:23.625Z,27.07
2023-07-21T00:17:26.553Z,27.11
2023-07-21T00:18:31.431Z,27.16
2023-07-21T00:19:33.803Z,27.20
2023-07-21T00:20:37.210Z,27.07
2023-07-21T00:21:39.700Z,27.09
2023-07-21T00:22:43.686Z,27.17
2023-07-21T00:23:47.854Z,27.19
2023-07-21T00:24:53.249Z,27.13
2023-07-21T00:25:56.523Z,27.14
2023-07-21T00:27:03.326Z,27.10
2023-07-21T00:28:06.601Z,27.09
2023-07-21T00:29:12.163Z,27.01
2023-07-21T00:30:15.401Z,27.01
2023-07-21T00:31:19.475Z,27.05
2023-07-21T00:32:24.147Z,27.18
2023-07-21T00:33:27.696Z,27.08
2023-07-21T00:34:30.617Z,27.06
2023-07-21T00:35:35.808Z,26.98
2023-07-21T00:36:38.485Z,27.00
2023-07-21T00:37:43.153Z,26.97
2023-07-21T00:38:49.107Z,26.75
2023-07-21T00:39:54.372Z,26.87
2023-07-21T00:40:57.633Z,26.89
2023-07-21T00:42:01.043Z,26.85
2023-07-21T00:43:04.784Z,26.83
2023-07-21T00:44:09.818Z,26.70
2023-07-21T00:45:15.624Z,26.76
2023-07-21T00:46:20.075Z,26.80
2023-07-21T00:47:23.162Z,26.72
2023-07-21T00:48:27.438Z,26.70
2023-07-21T00:49:30.214Z,26.63
2023-07-21T00:50:33.731Z,26.68
2023-07-21T00:51:37.045Z,26.64
2023-07-21T00:52:40.634Z,26.62
2023-07-21T00:53:43.196Z,26.71
2023-07-21T00:54:45.676Z,26.72
2023-07-21T00:55:52.027Z,26.63
2023-07-21T00:56:55.229Z,26.51
2023-07-21T00:57:58.570Z,26.63
2023-07-21T00:59:01.616Z,26.58
2023-07-21T01:00:09.344Z,26.52
2023-07-21T01:01:12.857Z,26.57
2023-07-21T01:02:17.751Z,26.74
2023-07-21T01:03:20.831Z,26.72
2023-07-21T01:04:25.029Z,26.73
2023-07-21T01:05:27.859Z,26.64
2023-07-21T01:06:32.886Z,26.62
2023-07-21T01:07:37.977Z,26.67
2023-07-21T01:08:41.798Z,26.61
2023-07-21T01:09:45.137Z,26.59
2023-07-21T01:10:51.478Z,26.66
2023-07-21T01:11:53.922Z,26.63
2023-07-21T01:12:58.658Z,26.53
2023-07-21T01:14:04.150Z,26.51
2023-07-21T01:15:08.998Z,26.50
2023-07-21T01:16:13.895Z,26.60
2023-07-21T01:17:18.053Z,26.50
2023-07-21T01:18:21.860Z,26.43
2023-07-21T01:19:28.729Z,26.49
2023-07-21T01:20:32.294Z,26.45
2023-07-21T01:21:42.666Z,26.44
2023-07-21T01:22:52.096Z,26.51
2023-07-21T01:24:01.245Z,26.44
2023-07-21T01:25:14.148Z,26.47
2023-07-21T01:26:19.106Z,26.46
2023-07-21T01:27:24.843Z,26.45
2023-07-21T01:28:30.515Z,26.40
2023-07-21T01:29:35.874Z,26.47
2023-07-21T01:30:42.046Z,26.50
2023-07-21T01:31:47.065Z,26.50
2023-07-21T01:32:53.058Z,26.43
2023-07-21T01:33:56.651Z,26.47
2023-07-21T01:35:00.648Z,26.40
2023-07-21T01:36:04.995Z,26.45
2023-07-21T01:37:10.153Z,26.43
2023-07-21T01:38:14.739Z,26.40
2023-07-21T01:39:18.575Z,26.38
2023-07-21T01:40:24.312Z,26.41
2023-07-21T01:41:29.038Z,26.27
2023-07-21T01:42:32.005Z,26.31
2023-07-21T01:43:36.103Z,26.43
2023-07-21T01:44:39.269Z,26.43
2023-07-21T01:45:42.819Z,26.23
2023-07-21T01:46:47.524Z,26.28
2023-07-21T01:47:49.979Z,26.27
2023-07-21T01:48:53.352Z,26.37
2023-07-21T01:49:55.663Z,26.40
2023-07-21T01:51:00.324Z,26.43
2023-07-21T01:52:03.250Z,26.47
2023-07-21T01:53:10.513Z,26.43
2023-07-21T01:54:19.684Z,26.43
2023-07-21T01:55:28.663Z,26.40
2023-07-21T01:56:37.931Z,26.55
2023-07-21T01:57:46.602Z,26.54
2023-07-21T01:58:49.806Z,26.52
2023-07-21T01:59:56.278Z,26.56
2023-07-21T02:01:00.062Z,26.47
2023-07-21T02:02:04.207Z,26.40
2023-07-21T02:03:08.944Z,26.52
2023-07-21T02:04:12.706Z,26.33
2023-07-21T02:05:22.002Z,26.52
2023-07-21T02:06:25.705Z,26.56
2023-07-21T02:07:28.669Z,26.54
2023-07-21T02:08:32.582Z,26.69
2023-07-21T02:09:35.039Z,26.54
2023-07-21T02:10:40.157Z,26.63
2023-07-21T02:11:42.764Z,26.60
2023-07-21T02:12:46.527Z,26.64
2023-07-21T02:13:49.723Z,26.62
2023-07-21T02:14:53.814Z,26.66
2023-07-21T02:15:57.311Z,26.70
2023-07-21T02:17:00.648Z,26.64
2023-07-21T02:18:03.077Z,26.63
2023-07-21T02:19:07.157Z,26.65
2023-07-21T02:20:11.253Z,26.73
2023-07-21T02:21:13.521Z,26.71
2023-07-21T02:22:16.951Z,26.73
2023-07-21T02:23:19.442Z,26.68
2023-07-21T02:24:23.041Z,26.61
2023-07-21T02:25:25.995Z,26.52
2023-07-21T02:26:30.942Z,26.62
2023-07-21T02:27:34.344Z,26.67
2023-07-21T02:28:37.817Z,26.70
2023-07-21T02:29:40.315Z,26.68
2023-07-21T02:30:43.879Z,26.69
2023-07-21T02:31:47.247Z,26.78
2023-07-21T02:32:50.829Z,26.82
2023-07-21T02:33:53.541Z,26.74
2023-07-21T02:34:57.992Z,26.88
2023-07-21T02:36:01.770Z,26.90
2023-07-21T02:37:06.080Z,26.89
2023-07-21T02:38:08.566Z,27.04
2023-07-21T02:39:12.490Z,27.03
2023-07-21T02:40:15.961Z,27.14
2023-07-21T02:41:19.445Z,27.13
2023-07-21T02:42:23.348Z,27.10
2023-07-21T02:43:25.814Z,26.97
2023-07-21T02:44:30.965Z,27.03
2023-07-21T02:45:33.576Z,27.00
2023-07-21T02:46:37.708Z,27.09
2023-07-21T02:47:41.040Z,27.15
2023-07-21T02:48:44.936Z,27.12
2023-07-21T02:49:47.402Z,27.16
2023-07-21T02:50:51.732Z,27.28
2023-07-21T02:51:54.535Z,27.35
2023-07-21T02:52:58.203Z,27.28
2023-07-21T02:54:00.731Z,27.21
2023-07-21T02:55:05.184Z,27.24
2023-07-21T02:56:07.780Z,27.25
2023-07-21T02:57:11.349Z,27.35
2023-07-21T02:58:16.876Z,27.51
2023-07-21T02:59:22.144Z,27.49
2023-07-21T03:00:24.591Z,27.47
2023-07-21T03:01:28.097Z,27.29
2023-07-21T03:02:31.641Z,27.18
2023-07-21T03:03:36.614Z,27.14
2023-07-21T03:04:43.795Z,26.96
2023-07-21T03:05:47.572Z,27.21
2023-07-21T03:06:50.072Z,27.13
2023-07-21T03:07:53.954Z,27.13
2023-07-21T03:08:56.717Z,27.23
2023-07-21T03:10:00.492Z,27.07
2023-07-21T03:11:03.084Z,27.12
2023-07-21T03:12:07.158Z,26.98
2023-07-21T03:13:09.599Z,27.06
2023-07-21T03:14:13.895Z,27.10
2023-07-21T03:15:17.670Z,27.20
2023-07-21T03:16:20.221Z,27.35
2023-07-21T03:17:23.837Z,27.24
2023-07-21T03:18:26.657Z,27.17
2023-07-21T03:19:32.047Z,27.17
2023-07-21T03:20:34.585Z,27.23
2023-07-21T03:21:38.132Z,27.17
2023-07-21T03:22:40.658Z,27.21
2023-07-21T03:23:46.932Z,27.27
2023-07-21T03:24:49.466Z,27.29
2023-07-21T03:25:53.700Z,27.38
2023-07-21T03:26:56.488Z,27.25
2023-07-21T03:28:00.539Z,27.37
2023-07-21T03:29:03.153Z,27.42
2023-07-21T03:30:09.980Z,27.33
2023-07-21T03:31:13.632Z,27.27
2023-07-21T03:32:17.262Z,27.12
2023-07-21T03:33:19.718Z,27.23
2023-07-21T03:34:23.680Z,27.08
2023-07-21T03:35:26.348Z,27.10
2023-07-21T03:36:30.360Z,27.15
2023-07-21T03:37:35.946Z,26.96
2023-07-21T03:38:40.262Z,27.04
2023-07-21T03:39:45.434Z,26.98
2023-07-21T03:40:48.855Z,26.93
2023-07-21T03:41:51.213Z,27.03
2023-07-21T03:42:55.006Z,27.00
2023-07-21T03:43:57.612Z,27.10
2023-07-21T03:45:02.708Z,27.01
2023-07-21T03:46:07.957Z,26.98
2023-07-21T03:47:11.648Z,27.02
2023-07-21T03:48:14.984Z,27.01
2023-07-21T03:49:18.287Z,27.03
2023-07-21T03:50:20.694Z,26.96
2023-07-21T03:51:24.154Z,26.86
2023-07-21T03:52:27.667Z,26.83
2023-07-21T03:53:37.034Z,26.88
2023-07-21T03:54:40.260Z,26.86
2023-07-21T03:55:44.812Z,26.85
2023-07-21T03:56:48.008Z,26.77
2023-07-21T03:57:51.416Z,26.76
2023-07-21T03:58:55.010Z,26.90
2023-07-21T03:59:59.274Z,26.95
2023-07-21T04:01:01.966Z,27.04
2023-07-21T04:02:07.624Z,26.88
2023-07-21T04:03:10.097Z,26.90
2023-07-21T04:04:13.726Z,26.82
2023-07-21T04:05:16.918Z,26.89
2023-07-21T04:06:21.915Z,26.89
2023-07-21T04:07:24.478Z,26.86
2023-07-21T04:08:27.998Z,26.86
2023-07-21T04:09:30.479Z,26.66
2023-07-21T04:10:34.407Z,26.58
2023-07-21T04:11:36.790Z,26.56
2023-07-21T04:12:40.281Z,26.48
2023-07-21T04:13:42.670Z,26.52
2023-07-21T04:14:46.269Z,26.49
2023-07-21T04:15:52.277Z,26.53
2023-07-21T04:16:56.973Z,26.49
2023-07-21T04:18:00.836Z,26.63
2023-07-21T04:19:04.931Z,26.63
2023-07-21T04:20:11.329Z,26.50
2023-07-21T04:21:14.848Z,26.60
2023-07-21T04:22:17.949Z,26.54
2023-07-21T04:23:21.325Z,26.52
2023-07-21T04:24:23.800Z,26.45
2023-07-21T04:25:26.390Z,26.32
2023-07-21T04:26:30.045Z,26.30
2023-07-21T04:27:32.569Z,26.33
2023-07-21T04:28:36.092Z,26.27
2023-07-21T04:29:39.225Z,26.29
2023-07-21T04:30:43.791Z,26.28
2023-07-21T04:31:46.211Z,26.21
2023-07-21T04:32:49.902Z,26.29
2023-07-21T04:33:53.860Z,26.45
2023-07-21T04:34:57.827Z,26.58
2023-07-21T04:36:01.343Z,26.59
2023-07-21T04:37:05.452Z,26.65
2023-07-21T04:38:08.197Z,26.70
2023-07-21T04:39:11.863Z,26.63
2023-07-21T04:40:14.141Z,26.53
2023-07-21T04:41:17.862Z,26.57
2023-07-21T04:42:20.192Z,26.52
2023-07-21T04:43:23.999Z,26.48
2023-07-21T04:44:26.504Z,26.50
2023-07-21T04:45:30.180Z,26.58
2023-07-21T04:46:33.312Z,26.62
2023-07-21T04:47:36.845Z,26.51
2023-07-21T04:48:39.336Z,26.66
2023-07-21T04:49:44.200Z,26.44
2023-07-21T04:50:52.695Z,26.37
2023-07-21T04:51:56.091Z,26.29
2023-07-21T04:52:58.783Z,26.22
2023-07-21T04:54:02.082Z,26.33
2023-07-21T04:55:07.043Z,26.53
2023-07-21T04:56:10.966Z,26.53
2023-07-21T04:57:13.349Z,26.61
2023-07-21T04:58:16.804Z,26.62
2023-07-21T04:59:20.278Z,26.69
2023-07-21T05:00:24.022Z,26.72
2023-07-21T05:01:26.517Z,26.79
2023-07-21T05:03:14.364Z,26.80
2023-07-21T05:04:18.076Z,26.93
2023-07-21T05:05:22.958Z,26.88
2023-07-21T05:06:25.837Z,26.91
2023-07-21T05:07:29.407Z,26.86
2023-07-21T05:08:31.817Z,26.91
2023-07-21T05:09:35.447Z,27.01
2023-07-21T05:10:38.203Z,26.93
2023-07-21T05:11:41.693Z,26.96
2023-07-21T05:12:44.421Z,26.96
2023-07-21T05:13:49.880Z,27.02
2023-07-21T05:14:52.575Z,27.00
2023-07-21T05:15:55.988Z,27.07
2023-07-21T05:16:58.451Z,27.02
2023-07-21T05:18:01.901Z,26.98
2023-07-21T05:19:04.541Z,26.91
2023-07-21T05:20:11.039Z,26.97
2023-07-21T05:21:15.243Z,26.84
2023-07-21T05:22:21.135Z,26.96
2023-07-21T05:23:23.690Z,26.97
2023-07-21T05:24:27.200Z,27.06
2023-07-21T05:25:29.540Z,26.90
2023-07-21T05:26:37.192Z,27.05
2023-07-21T05:27:39.870Z,27.10
2023-07-21T05:28:43.902Z,27.12
2023-07-21T05:29:46.303Z,26.93
2023-07-21T05:30:50.198Z,26.82
2023-07-21T05:31:53.504Z,26.82
2023-07-21T05:32:58.000Z,26.89
2023-07-21T05:34:00.595Z,26.80
2023-07-21T05:35:10.686Z,26.82
2023-07-21T05:36:14.812Z,26.96
2023-07-21T05:37:18.332Z,26.78
2023-07-21T05:38:20.759Z,26.90
2023-07-21T05:39:24.259Z,26.80
2023-07-21T05:40:26.698Z,26.70
2023-07-21T05:41:30.110Z,26.62
2023-07-21T05:42:33.184Z,26.68
2023-07-21T05:43:38.040Z,26.86
2023-07-21T05:44:41.953Z,26.91
2023-07-21T05:45:44.388Z,27.00
2023-07-21T05:46:47.898Z,27.05
2023-07-21T05:47:50.401Z,26.97
2023-07-21T05:48:53.957Z,26.75
2023-07-21T05:50:02.074Z,26.90
2023-07-21T05:51:05.756Z,27.01
2023-07-21T05:52:10.316Z,27.06
2023-07-21T05:53:13.821Z,27.03
2023-07-21T05:54:16.353Z,27.16
2023-07-21T05:55:19.899Z,27.19
2023-07-21T05:56:22.409Z,27.16
2023-07-21T05:57:24.955Z,27.25
2023-07-21T05:58:29.169Z,27.28
2023-07-21T05:59:33.426Z,27.35
2023-07-21T06:00:40.418Z,27.35
2023-07-21T06:01:43.320Z,27.24
2023-07-21T06:02:46.922Z,27.36
2023-07-21T06:03:49.509Z,27.39
2023-07-21T06:04:57.879Z,27.35
2023-07-21T06:06:00.569Z,27.38
2023-07-21T06:07:04.486Z,27.45
2023-07-21T06:08:10.997Z,27.49
2023-07-21T06:09:14.821Z,27.51
2023-07-21T06:10:17.803Z,27.60
2023-07-21T06:11:21.257Z,27.63
2023-07-21T06:12:24.678Z,27.55
2023-07-21T06:13:29.798Z,27.45
2023-07-21T06:14:32.466Z,27.50
2023-07-21T06:15:38.016Z,27.53
2023-07-21T06:16:40.444Z,27.41
2023-07-21T06:17:44.040Z,27.25
2023-07-21T06:18:47.156Z,27.22
2023-07-21T06:19:51.427Z,27.14
2023-07-21T06:20:54.372Z,27.12
2023-07-21T06:21:57.787Z,27.20
2023-07-21T06:23:02.301Z,27.16
2023-07-21T06:24:07.899Z,27.06
2023-07-21T06:25:12.867Z,27.06
2023-07-21T06:26:17.360Z,27.00
2023-07-21T06:27:20.487Z,27.00
2023-07-21T06:28:24.418Z,27.04
2023-07-21T06:29:27.112Z,26.96
2023-07-21T06:30:31.102Z,26.92
2023-07-21T06:31:33.619Z,26.95
2023-07-21T06:32:37.230Z,26.97
2023-07-21T06:33:40.032Z,26.98
2023-07-21T06:34:43.577Z,27.02
2023-07-21T06:35:46.187Z,26.91
2023-07-21T06:36:49.645Z,26.86
2023-07-21T06:37:52.073Z,26.83
2023-07-21T06:38:55.555Z,26.78
2023-07-21T06:39:59.265Z,26.77
2023-07-21T06:41:01.854Z,26.73
2023-07-21T06:42:06.775Z,26.73
2023-07-21T06:43:09.216Z,26.70
2023-07-21T06:44:13.788Z,26.79
2023-07-21T06:45:16.658Z,26.74
2023-07-21T06:46:20.629Z,26.76
2023-07-21T06:47:23.126Z,26.77
2023-07-21T06:48:27.242Z,26.81
2023-07-21T06:49:29.558Z,26.82
2023-07-21T06:50:33.484Z,26.77
2023-07-21T06:51:36.788Z,26.77
2023-07-21T06:52:40.803Z,26.80
2023-07-21T06:53:43.403Z,26.87
2023-07-21T06:54:47.065Z,26.87
2023-07-21T06:55:53.276Z,26.90
2023-07-21T06:56:55.648Z,26.90
2023-07-21T06:57:59.188Z,26.90
2023-07-21T07:00:08.330Z,26.90
2023-07-21T07:01:10.720Z,26.96
2023-07-21T07:02:14.735Z,26.89
2023-07-21T07:03:17.701Z,26.88
2023-07-21T07:04:23.097Z,26.88
2023-07-21T07:05:25.638Z,26.84
2023-07-21T07:06:29.969Z,26.98
2023-07-21T07:07:32.332Z,27.05
2023-07-21T07:08:36.276Z,27.04
2023-07-21T07:09:39.023Z,27.04
2023-07-21T07:10:42.786Z,27.17
2023-07-21T07:11:46.767Z,27.35
2023-07-21T07:12:51.564Z,27.49
2023-07-21T07:13:55.735Z,27.57
2023-07-21T07:14:59.790Z,27.51
2023-07-21T07:16:02.565Z,27.51
2023-07-21T07:17:06.087Z,27.53
2023-07-21T07:18:10.468Z,27.60
2023-07-21T07:19:14.142Z,27.66
2023-07-21T07:20:16.710Z,27.65
2023-07-21T07:21:22.168Z,27.76
2023-07-21T07:22:24.545Z,27.93
2023-07-21T07:23:28.422Z,28.04
2023-07-21T07:24:30.855Z,28.05
2023-07-21T07:25:34.398Z,28.11
2023-07-21T07:26:36.854Z,28.10
2023-07-21T07:27:41.788Z,28.01
2023-07-21T07:28:44.172Z,28.09
2023-07-21T07:29:48.315Z,28.18
2023-07-21T07:30:51.289Z,28.15
2023-07-21T07:31:55.144Z,28.18
2023-07-21T07:32:57.724Z,28.09
2023-07-21T07:34:01.558Z,28.01
2023-07-21T07:35:04.506Z,28.00
2023-07-21T07:36:07.994Z,27.81
2023-07-21T07:37:10.419Z,27.64
2023-07-21T07:38:13.980Z,27.67
2023-07-21T07:39:16.661Z,27.60
2023-07-21T07:40:20.431Z,27.56
2023-07-21T07:41:22.946Z,27.54
2023-07-21T07:42:26.799Z,27.51
2023-07-21T07:43:30.872Z,27.37
2023-07-21T07:44:34.464Z,27.39
2023-07-21T07:45:37.882Z,27.40
2023-07-21T07:46:42.135Z,27.17
2023-07-21T07:47:45.550Z,27.24
2023-07-21T07:48:50.528Z,27.27
2023-07-21T07:49:52.962Z,27.26
2023-07-21T07:50:56.567Z,27.23
2023-07-21T07:51:59.164Z,27.31
2023-07-21T07:53:02.629Z,27.37
2023-07-21T07:54:06.707Z,27.26
2023-07-21T07:55:10.691Z,27.22
2023-07-21T07:56:15.540Z,27.17
2023-07-21T07:57:19.523Z,27.22
2023-07-21T07:58:22.302Z,27.27
2023-07-21T07:59:27.943Z,27.23
2023-07-21T08:00:30.394Z,27.15
2023-07-21T08:01:33.841Z,27.12
2023-07-21T08:02:36.192Z,27.17
2023-07-21T08:03:39.718Z,27.14
2023-07-21T08:04:42.419Z,27.13
2023-07-21T08:05:46.205Z,27.16
2023-07-21T08:06:48.551Z,27.26
2023-07-21T08:07:51.965Z,27.33
2023-07-21T08:08:54.423Z,27.37
2023-07-21T08:09:58.127Z,27.47
2023-07-21T08:11:03.002Z,27.49
2023-07-21T08:12:07.106Z,27.59
2023-07-21T08:13:09.918Z,27.59
2023-07-21T08:14:13.472Z,27.67
2023-07-21T08:15:17.497Z,27.66
2023-07-21T08:16:21.276Z,27.61
2023-07-21T08:17:25.301Z,27.58
2023-07-21T08:18:28.847Z,27.54
2023-07-21T08:19:32.353Z,27.56
2023-07-21T08:20:38.771Z,27.58
2023-07-21T08:21:41.706Z,27.58
2023-07-21T08:22:45.524Z,27.44
2023-07-21T08:23:48.000Z,27.25
2023-07-21T08:24:51.557Z,27.24
2023-07-21T08:25:55.331Z,27.29
2023-07-21T08:27:00.514Z,27.30
2023-07-21T08:28:04.906Z,27.29
2023-07-21T08:29:10.522Z,27.24
2023-07-21T08:30:16.102Z,27.30
2023-07-21T08:31:23.487Z,27.32
2023-07-21T08:32:26.846Z,27.30
2023-07-21T08:33:31.255Z,27.22
2023-07-21T08:34:33.952Z,27.30
2023-07-21T08:35:37.617Z,27.27
2023-07-21T08:36:48.408Z,27.21
2023-07-21T08:37:57.401Z,27.17
2023-07-21T08:39:00.771Z,27.20
2023-07-21T08:40:04.536Z,27.19
2023-07-21T08:41:09.846Z,27.24
2023-07-21T08:42:14.514Z,27.27
2023-07-21T08:43:19.052Z,27.25
2023-07-21T08:44:23.710Z,27.29
2023-07-21T08:45:32.833Z,27.34
2023-07-21T08:46:36.654Z,27.40
2023-07-21T08:47:40.236Z,27.49
2023-07-21T08:48:43.294Z,27.60
2023-07-21T08:49:46.975Z,27.68
2023-07-21T08:50:50.274Z,27.75
2023-07-21T08:51:53.799Z,27.72
2023-07-21T08:52:56.745Z,27.69
2023-07-21T08:54:00.673Z,27.70
2023-07-21T08:55:03.280Z,27.68
2023-07-21T08:56:07.610Z,27.68
2023-07-21T08:57:12.015Z,27.74
2023-07-21T08:58:16.798Z,27.81
2023-07-21T08:59:19.495Z,27.73
2023-07-21T09:00:26.147Z,27.83
2023-07-21T09:01:28.782Z,27.85
2023-07-21T09:02:48.997Z,27.96
2023-07-21T09:03:51.713Z,27.84
2023-07-21T09:04:55.773Z,27.81
2023-07-21T09:06:01.325Z,27.80
2023-07-21T09:07:06.301Z,27.73
2023-07-21T09:08:20.220Z,27.72
2023-07-21T09:09:24.554Z,27.81
2023-07-21T09:10:34.737Z,27.84
2023-07-21T09:11:38.505Z,27.87
2023-07-21T09:12:40.855Z,27.93
2023-07-21T09:13:53.294Z,27.91
2023-07-21T09:14:55.686Z,27.94
2023-07-21T09:16:01.716Z,27.94
2023-07-21T09:17:06.324Z,27.83
2023-07-21T09:18:11.585Z,27.74
2023-07-21T09:19:14.063Z,27.89
2023-07-21T09:20:19.227Z,27.81
2023-07-21T09:21:22.736Z,27.84
2023-07-21T09:22:26.728Z,27.73
2023-07-21T09:23:31.362Z,27.69
2023-07-21T09:24:35.388Z,27.72
2023-07-21T09:25:38.240Z,27.74
2023-07-21T09:26:41.637Z,27.67
2023-07-21T09:27:54.240Z,27.65
2023-07-21T09:28:57.721Z,27.65
2023-07-21T09:30:01.619Z,27.57
2023-07-21T09:31:04.307Z,27.54
2023-07-21T09:32:13.521Z,27.59
2023-07-21T09:33:21.747Z,27.58
2023-07-21T09:34:25.680Z,27.56
2023-07-21T09:35:30.091Z,27.50
2023-07-21T09:36:33.841Z,27.49
2023-07-21T09:37:36.682Z,27.47
2023-07-21T09:38:41.782Z,27.40
2023-07-21T09:39:45.049Z,27.45
2023-07-21T09:40:48.377Z,27.50
2023-07-21T09:41:52.742Z,27.56
2023-07-21T09:42:57.015Z,27.58
2023-07-21T09:44:00.272Z,27.49
2023-07-21T09:45:05.225Z,27.41
2023-07-21T09:46:17.710Z,27.33
2023-07-21T09:47:24.034Z,27.37
2023-07-21T09:48:30.240Z,27.39
2023-07-21T09:49:36.620Z,27.42
2023-07-21T09:50:42.192Z,27.42
2023-07-21T09:51:51.174Z,27.38
2023-07-21T09:52:56.529Z,27.41
2023-07-21T09:54:05.071Z,27.34
2023-07-21T09:55:11.741Z,27.31
2023-07-21T09:56:16.629Z,27.25
2023-07-21T09:57:24.597Z,27.29
2023-07-21T09:58:29.921Z,27.26
2023-07-21T09:59:37.785Z,27.20
2023-07-21T10:00:42.197Z,27.23
2023-07-21T10:01:50.184Z,27.24
2023-07-21T10:02:53.128Z,27.31
2023-07-21T10:04:00.201Z,27.43
2023-07-21T10:05:06.077Z,27.42
2023-07-21T10:06:10.413Z,27.52
2023-07-21T10:07:14.730Z,27.61
2023-07-21T10:08:19.234Z,27.61
2023-07-21T10:09:22.090Z,27.63
2023-07-21T10:10:25.934Z,27.61
2023-07-21T10:11:29.190Z,27.65
2023-07-21T10:12:44.156Z,27.73
2023-07-21T10:13:49.793Z,27.81
2023-07-21T10:14:53.395Z,27.95
2023-07-21T10:16:03.188Z,28.12
2023-07-21T10:17:05.948Z,28.30
2023-07-21T10:18:12.290Z,28.42
2023-07-21T10:19:16.349Z,28.55
2023-07-21T10:20:20.705Z,28.70
2023-07-21T10:21:24.814Z,28.87
2023-07-21T10:22:28.036Z,28.85
2023-07-21T10:23:35.717Z,28.81
2023-07-21T10:24:46.091Z,28.76
2023-07-21T10:25:56.359Z,28.77
2023-07-21T10:27:04.651Z,28.61
2023-07-21T10:28:07.666Z,28.56
2023-07-21T10:29:20.492Z,28.32
2023-07-21T10:30:23.542Z,28.21
2023-07-21T10:31:39.975Z,28.20
2023-07-21T10:32:44.727Z,28.23
2023-07-21T10:34:03.341Z,28.36
2023-07-21T10:35:09.849Z,28.30
2023-07-21T10:36:15.636Z,28.28
2023-07-21T10:37:19.454Z,28.24
2023-07-21T10:38:25.974Z,28.30
2023-07-21T10:39:31.241Z,28.45
2023-07-21T10:40:35.131Z,28.59
2023-07-21T10:41:37.719Z,28.59
2023-07-21T10:42:42.023Z,28.56
2023-07-21T10:43:44.908Z,28.55
2023-07-21T10:44:50.058Z,28.63
2023-07-21T10:45:55.183Z,28.72
2023-07-21T10:46:58.890Z,28.78
2023-07-21T10:48:12.718Z,28.73
2023-07-21T10:49:17.923Z,28.67
2023-07-21T10:50:23.374Z,28.68
2023-07-21T10:51:26.960Z,28.80
2023-07-21T10:52:29.840Z,28.96
2023-07-21T10:53:34.284Z,29.07
2023-07-21T10:54:37.459Z,29.19
2023-07-21T10:55:45.309Z,29.24
2023-07-21T10:56:51.593Z,29.43
2023-07-21T10:57:56.041Z,29.54
2023-07-21T10:58:58.496Z,29.50
2023-07-21T11:00:02.290Z,29.57
2023-07-21T11:01:04.701Z,29.61
2023-07-21T11:02:09.930Z,29.73
2023-07-21T11:03:12.741Z,29.85
2023-07-21T11:04:18.310Z,29.79
2023-07-21T11:05:23.967Z,29.71
2023-07-21T11:06:27.477Z,29.69
2023-07-21T11:07:29.826Z,29.75
2023-07-21T11:08:33.465Z,29.74
2023-07-21T11:09:43.980Z,29.86
2023-07-21T11:10:47.350Z,29.90
2023-07-21T11:11:51.846Z,29.96
2023-07-21T11:12:55.487Z,30.09
2023-07-21T11:13:58.268Z,30.08
2023-07-21T11:15:01.820Z,30.07
2023-07-21T11:16:04.399Z,30.11
2023-07-21T11:17:08.458Z,30.24
2023-07-21T11:18:11.754Z,30.17
2023-07-21T11:19:17.891Z,30.03
2023-07-21T11:20:21.853Z,30.08
2023-07-21T11:21:26.187Z,30.04
2023-07-21T11:22:32.548Z,30.06
2023-07-21T11:23:36.661Z,30.14
2023-07-21T11:24:39.343Z,30.18
2023-07-21T11:25:42.843Z,30.20
2023-07-21T11:26:47.034Z,30.13
2023-07-21T11:27:50.672Z,30.03
2023-07-21T11:28:53.211Z,29.99
2023-07-21T11:29:57.344Z,29.89
2023-07-21T11:31:01.916Z,29.86
2023-07-21T11:32:18.407Z,29.85
2023-07-21T11:33:21.124Z,29.71
2023-07-21T11:34:25.966Z,29.56
2023-07-21T11:35:34.404Z,29.49
2023-07-21T11:36:38.122Z,29.46
2023-07-21T11:37:42.894Z,29.34
2023-07-21T11:38:59.836Z,29.53
2023-07-21T11:40:06.820Z,29.68
2023-07-21T11:41:10.402Z,29.79
2023-07-21T11:42:12.921Z,29.73
2023-07-21T11:43:16.718Z,29.59
2023-07-21T11:44:24.087Z,29.43
2023-07-21T11:45:37.632Z,29.30
2023-07-21T11:46:41.068Z,29.21
2023-07-21T11:47:45.003Z,29.15
2023-07-21T11:48:49.944Z,29.11
2023-07-21T11:49:57.186Z,29.23
2023-07-21T11:51:05.626Z,29.30
2023-07-21T11:52:11.072Z,29.11
2023-07-21T11:53:14.311Z,29.07
2023-07-21T11:54:22.296Z,29.15
2023-07-21T11:55:24.714Z,29.24
2023-07-21T11:56:29.165Z,29.29
2023-07-21T11:57:31.498Z,29.29
2023-07-21T11:58:34.927Z,29.21
2023-07-21T11:59:37.615Z,28.90
2023-07-21T12:00:43.408Z,28.76
2023-07-21T12:01:46.695Z,28.85
2023-07-21T12:02:50.188Z,28.95
2023-07-21T12:03:52.813Z,29.08
2023-07-21T12:04:55.330Z,29.15
2023-07-21T12:05:59.052Z,29.11
2023-07-21T12:07:03.999Z,29.14
2023-07-21T12:08:08.049Z,29.08
2023-07-21T12:09:10.993Z,29.20
2023-07-21T12:10:14.514Z,29.16
2023-07-21T12:11:17.686Z,29.10
2023-07-21T12:12:21.279Z,28.97
2023-07-21T12:13:23.699Z,28.80
2023-07-21T12:14:27.511Z,28.69
2023-07-21T12:15:31.080Z,28.75
2023-07-21T12:16:35.544Z,28.69
2023-07-21T12:17:38.477Z,28.82
2023-07-21T12:18:43.925Z,28.96
2023-07-21T12:19:46.409Z,29.11
2023-07-21T12:20:49.938Z,29.05
2023-07-21T12:21:53.072Z,28.97
2023-07-21T12:22:59.709Z,29.01
2023-07-21T12:24:02.683Z,28.98
2023-07-21T12:25:06.671Z,28.95
2023-07-21T12:26:09.623Z,29.02
2023-07-21T12:27:14.218Z,29.15
2023-07-21T12:28:18.366Z,29.18
2023-07-21T12:29:42.449Z,29.08
2023-07-21T12:30:44.538Z,29.02
2023-07-21T12:31:48.613Z,29.12
2023-07-21T12:32:51.654Z,29.23
2023-07-21T12:33:55.371Z,29.24
2023-07-21T12:34:58.103Z,29.21
2023-07-21T12:36:01.666Z,29.15
2023-07-21T12:37:05.174Z,29.20
2023-07-21T12:38:10.085Z,29.26
2023-07-21T12:39:14.012Z,29.32
2023-07-21T12:40:17.864Z,29.38
2023-07-21T12:41:20.443Z,29.41
2023-07-21T12:42:24.066Z,29.32
2023-07-21T12:43:26.480Z,29.44
2023-07-21T12:44:29.901Z,29.44
2023-07-21T12:45:32.413Z,29.55
2023-07-21T12:46:35.985Z,29.67
2023-07-21T12:47:40.272Z,29.57
2023-07-21T12:48:43.074Z,29.49
2023-07-21T12:49:46.762Z,29.52
2023-07-21T12:50:49.410Z,29.62
2023-07-21T12:51:52.964Z,29.57
2023-07-21T12:52:55.386Z,29.69
2023-07-21T12:54:00.580Z,29.78
2023-07-21T12:55:03.305Z,29.74
2023-07-21T12:56:07.861Z,29.76
2023-07-21T12:57:10.333Z,29.76
2023-07-21T12:58:13.861Z,29.70
2023-07-21T12:59:16.475Z,29.60
2023-07-21T13:00:20.229Z,29.67
2023-07-21T13:01:23.042Z,29.56
2023-07-21T13:02:27.255Z,29.50
2023-07-21T13:03:29.905Z,29.55
2023-07-21T13:04:34.686Z,29.61
2023-07-21T13:05:54.044Z,29.65
2023-07-21T13:06:59.690Z,29.61
2023-07-21T13:08:02.752Z,29.54
2023-07-21T13:09:07.684Z,29.61
2023-07-21T13:10:11.212Z,29.66
2023-07-21T13:11:14.585Z,29.59
2023-07-21T13:12:16.974Z,29.55
2023-07-21T13:13:20.434Z,29.50
2023-07-21T13:14:22.885Z,29.63
2023-07-21T13:15:26.382Z,29.72
2023-07-21T13:16:29.374Z,29.69
2023-07-21T13:17:33.595Z,29.76
2023-07-21T13:18:36.828Z,29.48
2023-07-21T13:19:40.206Z,29.35
2023-07-21T13:20:43.052Z,29.46
2023-07-21T13:21:46.582Z,29.33
2023-07-21T13:22:49.584Z,29.38
2023-07-21T13:23:53.056Z,29.37
2023-07-21T13:24:57.472Z,29.42
2023-07-21T13:26:02.335Z,29.34
2023-07-21T13:27:05.543Z,29.40
2023-07-21T13:28:08.069Z,29.49
2023-07-21T13:29:13.150Z,29.57
2023-07-21T13:30:15.927Z,29.58
2023-07-21T13:31:20.588Z,29.48
2023-07-21T13:32:24.100Z,29.47
2023-07-21T13:33:28.539Z,29.36
2023-07-21T13:34:31.320Z,29.35
2023-07-21T13:35:36.656Z,29.36
2023-07-21T13:36:39.464Z,29.42
2023-07-21T13:37:43.096Z,29.43
2023-07-21T13:38:46.412Z,29.45
2023-07-21T13:39:50.205Z,29.49
2023-07-21T13:40:54.291Z,29.46
2023-07-21T13:41:57.976Z,29.40
2023-07-21T13:43:00.386Z,29.52
2023-07-21T13:44:03.985Z,29.44
2023-07-21T13:45:08.248Z,29.41
2023-07-21T13:46:12.280Z,29.53
2023-07-21T13:47:16.157Z,29.47
2023-07-21T13:48:20.377Z,29.44
2023-07-21T13:49:25.122Z,29.36